Time;durP1;ratioP1;P1;durP2;ratioP2;P2;SDS_P1;SDS_P2;PMS_P1;PMS_P2;Temp;Humidity;BMP_temperature;BMP_pressure;BME280_temperature;BME280_humidity;BME280_pressure;Samples;Min_cycle;Max_cycle;Signal;HPM_P1;HPM_P2
2020/12/30 00:02:16;;;;;;;22.17;12.00;;;2.20;99.70;;;;;;5011448;28;20504;-68
2020/12/30 00:04:42;;;;;;;21.27;11.10;;;2.20;99.70;;;;;;5010488;28;20480;-67
2020/12/30 00:07:08;;;;;;;18.20;10.93;;;2.30;99.70;;;;;;5010970;28;20450;-68
2020/12/30 00:09:34;;;;;;;20.33;9.97;;;2.30;99.70;;;;;;5011137;28;20438;-68
2020/12/30 00:12:01;;;;;;;22.10;10.10;;;2.20;99.70;;;;;;5011204;28;20448;-68
2020/12/30 00:14:27;;;;;;;20.10;10.90;;;2.30;99.70;;;;;;5010189;28;20900;-68
2020/12/30 00:16:54;;;;;;;13.73;8.80;;;2.30;99.70;;;;;;5010901;28;20448;-68
2020/12/30 00:19:20;;;;;;;18.13;8.97;;;2.30;99.70;;;;;;5010844;28;20489;-68
2020/12/30 00:21:46;;;;;;;17.90;9.20;;;2.30;99.70;;;;;;5011143;28;20452;-68
2020/12/30 00:24:12;;;;;;;18.50;9.10;;;2.30;99.70;;;;;;5010695;28;21032;-68
2020/12/30 00:26:38;;;;;;;20.10;9.37;;;2.40;99.70;;;;;;5010988;28;20833;-68
2020/12/30 00:29:05;;;;;;;17.40;9.30;;;2.30;99.70;;;;;;5010457;28;20491;-68
2020/12/30 00:31:32;;;;;;;17.50;9.77;;;2.40;99.70;;;;;;5010655;28;20441;-69
2020/12/30 00:33:58;;;;;;;20.40;10.17;;;2.40;99.70;;;;;;5010655;28;20557;-68
2020/12/30 00:36:24;;;;;;;18.00;9.43;;;2.40;99.70;;;;;;5010643;28;20452;-68
2020/12/30 00:38:50;;;;;;;19.20;10.53;;;2.30;99.70;;;;;;5010235;28;20870;-68
2020/12/30 00:41:16;;;;;;;18.10;10.80;;;2.40;99.70;;;;;;5010429;28;20449;-68
2020/12/30 00:43:42;;;;;;;17.47;9.83;;;2.30;99.70;;;;;;5010599;28;20466;-68
2020/12/30 00:46:15;;;;;;;18.13;10.13;;;2.30;99.70;;;;;;5009692;28;21009;-68
2020/12/30 00:48:42;;;;;;;16.80;9.87;;;2.30;99.70;;;;;;5010169;28;20458;-68
2020/12/30 00:51:13;;;;;;;16.03;9.27;;;2.30;99.70;;;;;;5010176;28;20472;-68
2020/12/30 00:53:39;;;;;;;17.77;9.60;;;2.30;99.70;;;;;;5010455;28;20462;-69
2020/12/30 00:56:07;;;;;;;20.70;8.93;;;2.30;99.70;;;;;;5009948;28;20449;-68
2020/12/30 00:58:33;;;;;;;19.70;10.13;;;2.30;99.70;;;;;;5009834;28;20453;-68
2020/12/30 01:00:59;;;;;;;16.07;9.43;;;2.20;99.70;;;;;;5009910;28;20481;-69
2020/12/30 01:03:26;;;;;;;16.70;10.00;;;2.30;99.70;;;;;;5010129;28;20539;-68
2020/12/30 01:05:52;;;;;;;16.33;9.80;;;2.40;99.70;;;;;;5010199;28;20441;-68
2020/12/30 01:08:19;;;;;;;17.70;9.50;;;2.30;99.70;;;;;;5009791;28;20450;-68
2020/12/30 01:10:45;;;;;;;18.17;10.10;;;2.20;99.70;;;;;;5010065;28;20437;-68
2020/12/30 01:13:11;;;;;;;17.90;9.50;;;2.20;99.70;;;;;;5009283;28;20466;-68
2020/12/30 01:15:37;;;;;;;16.60;10.23;;;2.20;99.70;;;;;;5010292;28;20445;-68
2020/12/30 01:18:04;;;;;;;20.70;10.83;;;2.10;99.70;;;;;;5009730;28;20449;-66
2020/12/30 01:20:31;;;;;;;19.83;10.47;;;2.20;99.70;;;;;;5009910;28;20492;-69
2020/12/30 01:22:57;;;;;;;20.17;10.67;;;2.20;99.70;;;;;;5009736;28;20497;-68
2020/12/30 01:25:23;;;;;;;19.80;10.27;;;2.20;99.70;;;;;;5009860;28;20489;-69
2020/12/30 01:27:49;;;;;;;17.07;10.43;;;2.20;99.70;;;;;;5009296;28;21005;-67
2020/12/30 01:30:15;;;;;;;17.73;10.73;;;2.20;99.70;;;;;;5009800;28;20448;-68
2020/12/30 01:32:41;;;;;;;18.20;10.83;;;2.20;99.70;;;;;;5009721;28;20445;-67
2020/12/30 01:35:08;;;;;;;21.77;9.63;;;2.20;99.70;;;;;;5009768;28;20468;-69
2020/12/30 01:37:35;;;;;;;19.80;10.50;;;2.20;99.70;;;;;;5009540;28;20437;-68
2020/12/30 01:40:01;;;;;;;16.00;9.40;;;2.20;99.70;;;;;;5009936;28;20764;-68
2020/12/30 01:42:27;;;;;;;15.73;9.40;;;2.20;99.70;;;;;;5009719;28;20962;-69
2020/12/30 01:44:53;;;;;;;16.20;9.43;;;2.30;99.70;;;;;;5009779;28;20472;-68
2020/12/30 01:47:20;;;;;;;20.30;9.93;;;2.30;99.70;;;;;;5009546;28;20454;-68
2020/12/30 01:49:47;;;;;;;16.80;10.33;;;2.30;99.70;;;;;;5009459;28;20441;-68
2020/12/30 01:52:14;;;;;;;17.73;10.10;;;2.20;99.70;;;;;;5009433;28;20445;-69
2020/12/30 01:54:41;;;;;;;16.43;9.20;;;2.20;99.70;;;;;;5009425;28;20476;-68
2020/12/30 01:57:08;;;;;;;16.43;9.10;;;2.10;99.70;;;;;;5009283;28;20504;-68
2020/12/30 01:59:35;;;;;;;18.00;9.40;;;2.10;99.70;;;;;;5012156;28;20485;-68
2020/12/30 02:02:05;;;;;;;14.87;8.90;;;2.10;99.70;;;;;;5013478;28;20445;-68
2020/12/30 02:04:40;;;;;;;16.20;9.00;;;2.10;99.70;;;;;;5013228;28;20863;-68
2020/12/30 02:07:06;;;;;;;14.43;8.97;;;2.10;99.70;;;;;;5012824;28;20456;-68
2020/12/30 02:09:33;;;;;;;15.43;8.87;;;2.20;99.70;;;;;;5013291;28;20445;-68
2020/12/30 02:12:01;;;;;;;15.43;8.17;;;2.20;99.70;;;;;;5013287;28;20473;-68
2020/12/30 02:14:27;;;;;;;12.13;6.60;;;2.30;99.70;;;;;;5012381;28;20465;-69
2020/12/30 02:16:55;;;;;;;11.03;6.30;;;2.30;99.70;;;;;;5012804;28;20446;-68
2020/12/30 02:19:22;;;;;;;9.17;5.70;;;2.50;99.70;;;;;;5012903;28;20477;-68
2020/12/30 02:21:49;;;;;;;9.73;6.03;;;2.50;99.70;;;;;;5013034;28;20453;-68
2020/12/30 02:24:17;;;;;;;10.20;5.40;;;2.50;99.70;;;;;;5012877;28;20465;-68
2020/12/30 02:26:44;;;;;;;7.77;5.17;;;2.50;99.70;;;;;;5012571;28;20449;-68
2020/12/30 02:29:10;;;;;;;8.40;4.87;;;2.50;99.70;;;;;;5013016;28;20449;-68
2020/12/30 02:31:36;;;;;;;6.83;4.70;;;2.50;99.70;;;;;;5012723;28;20872;-68
2020/12/30 02:34:03;;;;;;;8.87;5.07;;;2.60;99.70;;;;;;5012990;28;20473;-68
2020/12/30 02:36:29;;;;;;;6.80;4.47;;;2.60;99.70;;;;;;5012823;28;20449;-68
2020/12/30 02:38:56;;;;;;;10.03;4.77;;;2.70;99.70;;;;;;5012657;28;20460;-68
2020/12/30 02:41:22;;;;;;;5.27;3.80;;;2.70;99.70;;;;;;5012904;28;20464;-68
2020/12/30 02:43:49;;;;;;;7.10;3.83;;;2.70;99.70;;;;;;5012827;28;20465;-68
2020/12/30 02:46:15;;;;;;;7.30;3.93;;;2.70;99.70;;;;;;5012805;28;20519;-68
2020/12/30 02:48:41;;;;;;;8.50;3.77;;;2.80;99.70;;;;;;5012574;28;20441;-69
2020/12/30 02:51:08;;;;;;;6.20;3.80;;;2.80;99.70;;;;;;5012454;28;20930;-68
2020/12/30 02:53:34;;;;;;;6.40;3.63;;;2.80;99.70;;;;;;5012645;28;20469;-68
2020/12/30 02:56:00;;;;;;;6.23;3.80;;;2.80;99.70;;;;;;5012290;28;20452;-68
2020/12/30 02:58:26;;;;;;;5.80;4.43;;;2.70;99.70;;;;;;5012243;28;20946;-68
2020/12/30 03:00:53;;;;;;;5.60;3.63;;;2.70;99.70;;;;;;5012431;28;20858;-68
2020/12/30 03:03:19;;;;;;;5.73;3.70;;;2.60;99.70;;;;;;5012033;28;20535;-68
2020/12/30 03:05:46;;;;;;;5.57;3.47;;;2.60;99.70;;;;;;5012626;28;20456;-68
2020/12/30 03:08:12;;;;;;;5.17;3.00;;;2.60;99.70;;;;;;5011574;28;20445;-68
2020/12/30 03:10:38;;;;;;;4.50;3.37;;;2.60;99.70;;;;;;5011793;28;20795;-68
2020/12/30 03:13:04;;;;;;;5.30;3.30;;;2.70;99.70;;;;;;5011211;28;20496;-67
2020/12/30 03:15:30;;;;;;;5.10;3.23;;;2.80;99.70;;;;;;5012265;28;20449;-68
2020/12/30 03:17:57;;;;;;;5.30;3.43;;;3.00;99.70;;;;;;5011739;28;20457;-68
2020/12/30 03:20:24;;;;;;;5.83;3.20;;;2.90;99.70;;;;;;5012305;28;20489;-68
2020/12/30 03:22:50;;;;;;;4.50;2.80;;;3.00;99.70;;;;;;5011971;28;20678;-68
2020/12/30 03:25:17;;;;;;;4.20;2.83;;;3.00;99.70;;;;;;5012222;28;20441;-68
2020/12/30 03:27:43;;;;;;;3.80;2.87;;;2.90;99.70;;;;;;5011598;28;20477;-68
2020/12/30 03:30:09;;;;;;;5.70;2.80;;;2.90;99.70;;;;;;5011869;28;20437;-68
2020/12/30 03:32:35;;;;;;;4.67;3.20;;;2.80;99.70;;;;;;5011524;28;20716;-68
2020/12/30 03:35:02;;;;;;;5.40;3.10;;;2.70;99.70;;;;;;5011820;28;20456;-68
2020/12/30 03:37:28;;;;;;;4.67;2.70;;;2.70;99.70;;;;;;5011407;28;20449;-68
2020/12/30 03:39:55;;;;;;;5.10;3.07;;;2.60;99.70;;;;;;5011551;28;20477;-68
2020/12/30 03:42:21;;;;;;;4.70;2.87;;;2.70;99.70;;;;;;5011703;28;20858;-68
2020/12/30 03:44:47;;;;;;;7.23;3.40;;;2.70;99.70;;;;;;5011483;28;20461;-68
2020/12/30 03:47:13;;;;;;;4.53;3.00;;;2.60;99.70;;;;;;5011548;28;20539;-68
2020/12/30 03:49:39;;;;;;;4.07;2.93;;;2.60;99.70;;;;;;5011831;28;20437;-68
2020/12/30 03:52:06;;;;;;;5.10;3.60;;;2.50;99.70;;;;;;5011633;28;20493;-69
2020/12/30 03:54:33;;;;;;;5.97;4.03;;;2.50;99.70;;;;;;5011630;28;20613;-68
2020/12/30 03:56:59;;;;;;;5.00;3.50;;;2.50;99.70;;;;;;5010923;28;20449;-68
2020/12/30 03:59:25;;;;;;;6.40;3.70;;;2.50;99.70;;;;;;5011106;28;20528;-68
2020/12/30 04:01:51;;;;;;;7.33;4.10;;;2.40;99.70;;;;;;5011291;28;20523;-68
2020/12/30 04:04:17;;;;;;;5.50;3.83;;;2.50;99.70;;;;;;5011024;28;20871;-68
2020/12/30 04:06:44;;;;;;;6.47;3.97;;;2.50;99.70;;;;;;5010871;28;20460;-67
2020/12/30 04:09:11;;;;;;;6.17;3.33;;;2.50;99.70;;;;;;5010796;28;20455;-68
2020/12/30 04:11:37;;;;;;;5.00;3.40;;;2.30;99.70;;;;;;5011069;28;20450;-68
2020/12/30 04:14:04;;;;;;;6.80;3.60;;;2.40;99.70;;;;;;5010084;28;20519;-68
2020/12/30 04:16:30;;;;;;;4.83;3.27;;;2.40;99.70;;;;;;5010990;28;20832;-68
2020/12/30 04:18:57;;;;;;;5.33;3.40;;;2.40;99.70;;;;;;5010631;28;20522;-68
2020/12/30 04:21:24;;;;;;;6.93;4.03;;;2.30;99.70;;;;;;5009655;28;20488;-68
2020/12/30 04:23:51;;;;;;;7.13;3.20;;;2.20;99.70;;;;;;5010999;28;20465;-68
2020/12/30 04:26:18;;;;;;;7.60;3.60;;;2.10;99.70;;;;;;5010769;28;20469;-68
2020/12/30 04:28:45;;;;;;;6.73;3.83;;;2.10;99.70;;;;;;5010380;28;20441;-68
2020/12/30 04:31:12;;;;;;;6.43;3.50;;;2.10;99.70;;;;;;5010725;28;20441;-68
2020/12/30 04:33:38;;;;;;;5.80;3.63;;;2.10;99.70;;;;;;5010692;28;20465;-68
2020/12/30 04:36:05;;;;;;;8.07;4.00;;;2.10;99.70;;;;;;5010522;28;20442;-69
2020/12/30 04:38:32;;;;;;;5.53;3.40;;;2.00;99.70;;;;;;5010273;28;20457;-68
2020/12/30 04:41:00;;;;;;;6.30;3.30;;;2.10;99.70;;;;;;5010854;28;20852;-68
2020/12/30 04:43:28;;;;;;;8.63;3.73;;;1.90;99.70;;;;;;5010386;28;20469;-68
2020/12/30 04:45:55;;;;;;;6.93;3.67;;;2.00;99.70;;;;;;5010558;28;20445;-68
2020/12/30 04:48:22;;;;;;;6.97;3.90;;;2.00;99.70;;;;;;5010333;28;20469;-66
2020/12/30 04:50:48;;;;;;;6.93;4.20;;;2.00;99.70;;;;;;5010542;28;20445;-68
2020/12/30 04:53:14;;;;;;;7.03;4.43;;;1.90;99.70;;;;;;5010149;28;20466;-68
2020/12/30 04:55:42;;;;;;;7.70;4.40;;;1.80;99.70;;;;;;5010709;28;20454;-68
2020/12/30 04:58:09;;;;;;;8.17;4.20;;;1.90;99.70;;;;;;5010007;28;20542;-68
2020/12/30 05:00:37;;;;;;;6.70;4.00;;;1.90;99.70;;;;;;5010762;28;20477;-68
2020/12/30 05:03:07;;;;;;;7.90;4.63;;;1.90;99.70;;;;;;5010348;28;20508;-68
2020/12/30 05:05:34;;;;;;;6.60;4.03;;;1.80;99.70;;;;;;5010646;28;20561;-65
2020/12/30 05:08:01;;;;;;;7.47;4.60;;;1.70;99.70;;;;;;5009899;28;20457;-68
2020/12/30 05:10:28;;;;;;;5.90;3.80;;;1.80;99.70;;;;;;5010418;28;20445;-68
2020/12/30 05:12:55;;;;;;;5.23;3.50;;;1.80;99.70;;;;;;5010164;28;20497;-68
2020/12/30 05:15:22;;;;;;;6.77;3.60;;;1.90;99.70;;;;;;5009546;28;20548;-68
2020/12/30 05:17:52;;;;;;;5.70;3.53;;;1.90;99.70;;;;;;5009841;28;20464;-68
2020/12/30 05:20:18;;;;;;;6.53;3.57;;;1.90;99.70;;;;;;5009878;28;20497;-68
2020/12/30 05:22:45;;;;;;;6.27;4.17;;;1.90;99.70;;;;;;5009640;28;20958;-68
2020/12/30 05:25:12;;;;;;;4.63;3.40;;;2.00;99.70;;;;;;5009926;28;20441;-68
2020/12/30 05:27:39;;;;;;;6.70;3.47;;;1.80;99.70;;;;;;5009424;28;20449;-68
2020/12/30 05:30:05;;;;;;;7.23;3.70;;;1.90;99.70;;;;;;5009567;28;20528;-68
2020/12/30 05:32:35;;;;;;;8.27;4.37;;;1.80;99.70;;;;;;5009518;28;20808;-68
2020/12/30 05:35:03;;;;;;;6.30;4.23;;;1.90;99.70;;;;;;5009569;28;20473;-68
2020/12/30 05:37:31;;;;;;;11.50;5.00;;;1.90;99.70;;;;;;5009333;28;20445;-69
2020/12/30 05:39:58;;;;;;;9.83;5.90;;;1.90;99.70;;;;;;5009357;28;20484;-68
2020/12/30 05:42:24;;;;;;;10.80;6.20;;;1.80;99.70;;;;;;5009651;28;20456;-69
2020/12/30 05:44:52;;;;;;;10.03;6.23;;;1.60;99.70;;;;;;5009294;28;20476;-68
2020/12/30 05:47:19;;;;;;;10.90;6.20;;;1.60;99.70;;;;;;5009310;28;20504;-69
2020/12/30 05:49:47;;;;;;;11.63;6.33;;;1.50;99.70;;;;;;5009479;28;20935;-68
2020/12/30 05:52:19;;;;;;;11.47;6.40;;;1.60;99.70;;;;;;5009524;28;20873;-68
2020/12/30 05:54:47;;;;;;;14.53;5.40;;;1.70;99.70;;;;;;5009361;28;20681;-68
2020/12/30 05:57:27;;;;;;;10.50;5.87;;;1.60;99.70;;;;;;5009048;28;20791;-68
2020/12/30 05:59:57;;;;;;;11.13;5.73;;;1.70;99.70;;;;;;5009338;28;20560;-68
2020/12/30 06:02:29;;;;;;;11.43;6.07;;;1.70;99.70;;;;;;5009478;28;20489;-68
2020/12/30 06:04:57;;;;;;;10.60;6.40;;;1.70;99.70;;;;;;5009139;28;20528;-68
2020/12/30 06:07:25;;;;;;;11.57;6.40;;;1.60;99.70;;;;;;5009106;28;20453;-67
2020/12/30 06:09:54;;;;;;;11.13;6.27;;;1.50;99.70;;;;;;5009111;28;20433;-68
2020/12/30 06:12:25;;;;;;;12.37;7.00;;;1.40;99.70;;;;;;5009525;28;20450;-68
2020/12/30 06:14:52;;;;;;;14.13;6.57;;;1.40;99.70;;;;;;5008915;28;20535;-68
2020/12/30 06:17:29;;;;;;;13.23;6.60;;;1.40;99.70;;;;;;5009300;28;20547;-68
2020/12/30 06:19:55;;;;;;;14.30;7.00;;;1.40;99.70;;;;;;5009556;28;20481;-68
2020/12/30 06:22:22;;;;;;;12.27;6.97;;;1.30;99.70;;;;;;5009117;28;20460;-68
2020/12/30 06:24:54;;;;;;;12.20;7.03;;;1.40;99.70;;;;;;5009248;28;20465;-68
2020/12/30 06:27:22;;;;;;;15.13;7.30;;;1.30;99.70;;;;;;5008778;28;20445;-68
2020/12/30 06:29:50;;;;;;;12.63;6.90;;;1.30;99.70;;;;;;5009323;28;20444;-68
2020/12/30 06:32:28;;;;;;;13.53;6.60;;;1.20;99.70;;;;;;5009134;28;20453;-68
2020/12/30 06:34:54;;;;;;;11.30;6.50;;;1.30;99.70;;;;;;5009255;28;20472;-68
2020/12/30 06:37:27;;;;;;;11.80;7.23;;;1.20;99.70;;;;;;5008685;28;21070;-68
2020/12/30 06:40:22;;;;;;;14.77;7.03;;;1.20;99.70;;;;;;5009118;28;20485;-68
2020/12/30 06:42:55;;;;;;;10.70;6.80;;;1.30;99.70;;;;;;5002419;28;20449;-67
2020/12/30 06:45:50;;;;;;;11.83;6.50;;;1.20;99.70;;;;;;5011397;28;20457;-68
2020/12/30 06:48:20;;;;;;;14.00;6.80;;;1.10;99.70;;;;;;5012389;28;20537;-68
2020/12/30 06:50:47;;;;;;;11.33;6.67;;;1.20;99.70;;;;;;5012616;28;20433;-68
2020/12/30 06:53:33;;;;;;;11.73;6.10;;;1.10;99.70;;;;;;5012520;28;20461;-68
2020/12/30 06:56:02;;;;;;;11.53;7.20;;;1.20;99.70;;;;;;5012665;28;20449;-68
2020/12/30 06:58:47;;;;;;;12.30;6.30;;;1.20;99.70;;;;;;5011829;28;20441;-68
2020/12/30 07:01:14;;;;;;;10.73;6.40;;;1.20;99.70;;;;;;5012611;28;20480;-67
2020/12/30 07:03:41;;;;;;;11.80;6.33;;;1.20;99.70;;;;;;5012477;28;20481;-68
2020/12/30 07:06:27;;;;;;;12.43;6.60;;;1.20;99.70;;;;;;5012433;28;20445;-68
2020/12/30 07:08:54;;;;;;;11.33;6.10;;;1.20;99.70;;;;;;5011891;28;20449;-68
2020/12/30 07:11:51;;;;;;;9.47;5.53;;;1.30;99.70;;;;;;5012222;28;20446;-68
2020/12/30 07:14:19;;;;;;;11.70;5.67;;;1.30;99.70;;;;;;5011321;28;20477;-68
2020/12/30 07:16:48;;;;;;;11.00;5.60;;;1.30;99.70;;;;;;5011827;28;20437;-68
2020/12/30 07:19:20;;;;;;;14.07;6.43;;;1.30;99.70;;;;;;5011948;28;20460;-66
2020/12/30 07:22:05;;;;;;;9.83;5.60;;;1.30;99.70;;;;;;5012161;28;20445;-67
2020/12/30 07:24:39;;;;;;;9.40;5.37;;;1.40;99.70;;;;;;5012110;28;20829;-68
2020/12/30 07:27:08;;;;;;;10.53;5.87;;;1.40;99.70;;;;;;5011717;28;21000;-68
2020/12/30 07:29:34;;;;;;;11.73;6.07;;;1.50;99.70;;;;;;5011975;28;20825;-68
2020/12/30 07:32:02;;;;;;;8.63;5.20;;;1.50;99.70;;;;;;5012032;28;20977;-68
2020/12/30 07:34:30;;;;;;;9.73;5.20;;;1.50;99.70;;;;;;5011858;28;20458;-68
2020/12/30 07:36:57;;;;;;;9.60;5.20;;;1.50;99.70;;;;;;5011560;28;20448;-68
2020/12/30 07:39:25;;;;;;;12.87;5.17;;;1.70;99.70;;;;;;5011602;28;20499;-68
2020/12/30 07:41:52;;;;;;;8.23;5.57;;;1.60;99.70;;;;;;5011538;28;20446;-66
2020/12/30 07:44:19;;;;;;;9.20;4.90;;;1.70;99.70;;;;;;5011502;28;20527;-68
2020/12/30 07:46:45;;;;;;;9.93;5.50;;;1.80;99.70;;;;;;5011271;28;20507;-68
2020/12/30 07:49:13;;;;;;;8.60;4.90;;;1.80;99.70;;;;;;5011608;28;20442;-68
2020/12/30 07:51:47;;;;;;;8.13;4.40;;;1.90;99.70;;;;;;5011459;28;20437;-68
2020/12/30 07:54:15;;;;;;;7.30;4.50;;;2.00;99.70;;;;;;5011463;28;20466;-68
2020/12/30 07:56:41;;;;;;;7.33;4.60;;;2.00;99.70;;;;;;5011025;28;20449;-66
2020/12/30 07:59:07;;;;;;;8.80;4.70;;;2.00;99.70;;;;;;5011320;28;20446;-68
2020/12/30 08:01:34;;;;;;;13.63;5.00;;;2.00;99.70;;;;;;5010978;28;20868;-68
2020/12/30 08:04:08;;;;;;;7.50;5.10;;;2.10;99.70;;;;;;5010993;28;20484;-68
2020/12/30 08:06:44;;;;;;;8.67;5.30;;;2.10;99.70;;;;;;5010876;28;20452;-68
2020/12/30 08:09:12;;;;;;;9.93;5.53;;;2.10;99.70;;;;;;5011136;28;20445;-68
2020/12/30 08:11:47;;;;;;;10.70;5.90;;;2.30;99.70;;;;;;5010958;28;20437;-68
2020/12/30 08:14:13;;;;;;;8.70;5.30;;;2.30;99.70;;;;;;5010079;28;20477;-68
2020/12/30 08:16:49;;;;;;;10.00;5.60;;;2.30;99.70;;;;;;5010859;28;20464;-68
2020/12/30 08:19:29;;;;;;;10.53;5.30;;;2.30;99.70;;;;;;5011045;28;20452;-68
2020/12/30 08:22:02;;;;;;;9.07;5.20;;;2.30;99.70;;;;;;5011055;28;20437;-68
2020/12/30 08:24:29;;;;;;;9.73;5.33;;;2.40;99.70;;;;;;5010968;28;20489;-68
2020/12/30 08:26:55;;;;;;;8.07;5.00;;;2.50;99.70;;;;;;5010571;28;20816;-68
2020/12/30 08:29:21;;;;;;;8.17;4.93;;;2.60;99.70;;;;;;5010973;28;20441;-68
2020/12/30 08:31:54;;;;;;;8.60;5.50;;;2.60;99.70;;;;;;5010690;28;20446;-68
2020/12/30 08:34:25;;;;;;;8.40;4.97;;;2.60;99.70;;;;;;5010660;28;20458;-68
2020/12/30 08:37:03;;;;;;;8.03;5.33;;;2.50;99.70;;;;;;5010321;28;20591;-68
2020/12/30 08:39:30;;;;;;;10.33;5.20;;;2.40;99.70;;;;;;5010756;28;20445;-68
2020/12/30 08:42:00;;;;;;;8.73;4.77;;;2.40;99.70;;;;;;5009546;28;20437;-68
2020/12/30 08:44:27;;;;;;;8.80;5.07;;;2.40;99.70;;;;;;5009169;28;20519;-68
2020/12/30 08:46:57;;;;;;;9.70;4.97;;;2.40;99.70;;;;;;5005692;28;20537;-68
2020/12/30 08:49:24;;;;;;;8.60;4.90;;;2.60;99.70;;;;;;4996992;28;20525;-68
2020/12/30 08:51:52;;;;;;;8.50;5.17;;;2.60;99.70;;;;;;5003348;28;20480;-68
2020/12/30 08:54:19;;;;;;;9.53;5.30;;;2.70;99.70;;;;;;5006609;28;20458;-68
2020/12/30 08:56:46;;;;;;;8.00;4.90;;;2.80;99.70;;;;;;4996583;28;20981;-68
2020/12/30 08:59:21;;;;;;;8.70;4.40;;;2.80;99.70;;;;;;5005357;28;20449;-68
2020/12/30 09:01:48;;;;;;;6.97;4.30;;;2.90;99.70;;;;;;4999780;28;20810;-69
2020/12/30 09:04:15;;;;;;;9.27;5.30;;;2.80;99.70;;;;;;5004688;28;20469;-68
2020/12/30 09:06:48;;;;;;;11.93;6.40;;;2.90;99.70;;;;;;5005454;28;20516;-66
2020/12/30 09:09:18;;;;;;;10.53;5.50;;;2.90;99.70;;;;;;5009020;28;20446;-68
2020/12/30 09:11:46;;;;;;;11.93;6.20;;;3.00;99.70;;;;;;4995009;28;20446;-68
2020/12/30 09:14:18;;;;;;;10.10;5.63;;;3.00;99.70;;;;;;4989817;28;20466;-69
2020/12/30 09:16:54;;;;;;;10.50;5.40;;;2.90;99.70;;;;;;5003714;28;20445;-67
2020/12/30 09:19:21;;;;;;;9.20;5.13;;;3.00;99.70;;;;;;5008900;28;20483;-68
2020/12/30 09:21:48;;;;;;;9.13;5.47;;;3.00;99.70;;;;;;5007272;28;20474;-68
2020/12/30 09:24:15;;;;;;;9.53;5.53;;;3.10;99.70;;;;;;5008652;28;20550;-69
2020/12/30 09:26:41;;;;;;;9.27;5.10;;;3.10;99.70;;;;;;5001340;28;20454;-66
2020/12/30 09:29:17;;;;;;;7.13;4.87;;;3.10;99.70;;;;;;5004401;28;20442;-69
2020/12/30 09:31:52;;;;;;;11.50;5.87;;;3.10;99.70;;;;;;4995740;28;20452;-69
2020/12/30 09:34:18;;;;;;;8.77;5.50;;;3.10;99.70;;;;;;5000107;28;20988;-68
2020/12/30 09:36:55;;;;;;;10.03;5.30;;;3.20;99.70;;;;;;4990845;28;20620;-68
2020/12/30 09:39:22;;;;;;;9.93;5.70;;;3.10;99.70;;;;;;5007722;28;20449;-69
2020/12/30 09:41:48;;;;;;;10.37;5.27;;;3.10;99.70;;;;;;5005242;28;20477;-69
2020/12/30 09:44:14;;;;;;;17.07;5.90;;;3.20;99.70;;;;;;5008185;28;20488;-68
2020/12/30 09:46:49;;;;;;;11.43;5.00;;;3.40;99.70;;;;;;5006406;28;20450;-69
2020/12/30 09:49:15;;;;;;;48.77;7.63;;;3.40;99.70;;;;;;5008753;28;20445;-69
2020/12/30 09:51:42;;;;;;;9.43;4.97;;;3.30;99.70;;;;;;5006270;28;20441;-68
2020/12/30 09:54:09;;;;;;;7.77;4.70;;;3.40;99.70;;;;;;5008161;28;20811;-68
2020/12/30 09:56:35;;;;;;;12.37;5.60;;;3.30;99.70;;;;;;5001472;28;20500;-69
2020/12/30 09:59:03;;;;;;;9.77;5.33;;;3.20;99.70;;;;;;5008285;28;20754;-68
2020/12/30 10:01:30;;;;;;;10.60;4.57;;;3.20;99.70;;;;;;5004921;28;20539;-67
2020/12/30 10:03:57;;;;;;;11.67;5.10;;;3.10;99.70;;;;;;4999329;28;20850;-69
2020/12/30 10:06:23;;;;;;;12.47;5.50;;;3.10;99.70;;;;;;4998267;28;20806;-68
2020/12/30 10:08:50;;;;;;;18.83;5.63;;;3.10;99.70;;;;;;5002249;28;20889;-67
2020/12/30 10:11:19;;;;;;;9.80;6.20;;;3.20;99.70;;;;;;5002756;28;20454;-68
2020/12/30 10:13:45;;;;;;;37.40;6.70;;;3.20;99.70;;;;;;5003174;28;20544;-69
2020/12/30 10:16:11;;;;;;;11.73;5.63;;;3.20;99.70;;;;;;5002808;28;20477;-67
2020/12/30 10:18:37;;;;;;;9.53;5.10;;;3.30;99.70;;;;;;5007820;28;20942;-68
2020/12/30 10:21:03;;;;;;;11.57;4.90;;;3.20;99.70;;;;;;5009174;28;20897;-68
2020/12/30 10:23:30;;;;;;;6.90;4.40;;;3.20;99.70;;;;;;5002372;28;20855;-69
2020/12/30 10:25:56;;;;;;;13.93;5.47;;;3.30;99.70;;;;;;5010807;28;20981;-69
2020/12/30 10:28:23;;;;;;;9.43;4.90;;;3.30;99.70;;;;;;5011471;28;20445;-66
2020/12/30 10:30:49;;;;;;;10.40;5.20;;;3.30;99.70;;;;;;5011566;28;20429;-68
2020/12/30 10:33:15;;;;;;;8.07;4.70;;;3.40;99.70;;;;;;5005497;28;20453;-69
2020/12/30 10:35:42;;;;;;;8.33;5.10;;;3.40;99.70;;;;;;5003386;28;20804;-68
2020/12/30 10:38:08;;;;;;;8.33;5.00;;;3.60;99.70;;;;;;5000240;28;20454;-68
2020/12/30 10:40:34;;;;;;;8.67;4.80;;;3.60;99.70;;;;;;5007931;28;21022;-68
2020/12/30 10:43:03;;;;;;;9.50;4.47;;;3.60;99.70;;;;;;5008555;28;20472;-68
2020/12/30 10:45:30;;;;;;;11.20;4.40;;;3.40;99.70;;;;;;5000068;28;20457;-67
2020/12/30 10:47:57;;;;;;;10.20;4.90;;;3.70;99.70;;;;;;4998341;28;20441;-68
2020/12/30 10:50:23;;;;;;;8.30;4.53;;;3.90;99.70;;;;;;5011424;28;20568;-68
2020/12/30 10:52:49;;;;;;;9.17;4.40;;;4.00;99.70;;;;;;5004375;28;20508;-68
2020/12/30 10:55:18;;;;;;;7.73;4.20;;;4.30;99.70;;;;;;5008946;28;20437;-69
2020/12/30 10:57:44;;;;;;;6.63;3.67;;;4.50;99.70;;;;;;5006141;28;20537;-69
2020/12/30 11:00:10;;;;;;;4.77;3.10;;;4.60;99.70;;;;;;5006645;28;21001;-69
2020/12/30 11:02:37;;;;;;;4.60;3.03;;;4.50;99.70;;;;;;5008575;28;20749;-68
2020/12/30 11:05:04;;;;;;;10.17;3.80;;;4.60;99.70;;;;;;5005505;28;20445;-69
2020/12/30 11:07:30;;;;;;;5.47;3.13;;;4.80;99.70;;;;;;5008550;28;20460;-69
2020/12/30 11:09:56;;;;;;;5.37;2.77;;;4.90;99.70;;;;;;5011507;28;20460;-69
2020/12/30 11:12:22;;;;;;;5.10;3.10;;;5.00;99.70;;;;;;5007831;28;20461;-66
2020/12/30 11:14:48;;;;;;;6.43;3.07;;;4.90;99.70;;;;;;5010377;28;20472;-67
2020/12/30 11:17:15;;;;;;;5.80;3.10;;;4.90;99.70;;;;;;5006235;28;20530;-66
2020/12/30 11:19:42;;;;;;;5.17;2.83;;;5.00;99.70;;;;;;5009945;28;20540;-66
2020/12/30 11:22:08;;;;;;;5.20;2.70;;;5.00;99.70;;;;;;5007376;28;20862;-68
2020/12/30 11:24:34;;;;;;;8.87;3.60;;;5.00;99.70;;;;;;5009963;28;20465;-66
2020/12/30 11:27:00;;;;;;;6.20;3.40;;;5.00;99.70;;;;;;4994246;28;20447;-67
2020/12/30 11:29:26;;;;;;;6.00;3.27;;;5.00;99.70;;;;;;4991145;28;20447;-67
2020/12/30 11:31:53;;;;;;;6.87;4.17;;;5.00;99.70;;;;;;4990063;28;20446;-66
2020/12/30 11:34:19;;;;;;;4.30;3.23;;;5.10;99.70;;;;;;4973043;28;20471;-67
2020/12/30 11:36:46;;;;;;;4.67;3.20;;;5.20;99.70;;;;;;4972426;28;21014;-67
2020/12/30 11:39:12;;;;;;;4.33;2.87;;;5.00;99.70;;;;;;4983372;28;20469;-67
2020/12/30 11:41:38;;;;;;;5.47;3.43;;;5.10;99.70;;;;;;4997533;28;20478;-68
2020/12/30 11:44:05;;;;;;;8.60;4.10;;;5.10;99.70;;;;;;4995319;28;21083;-69
2020/12/30 11:46:31;;;;;;;5.80;3.57;;;5.10;99.70;;;;;;4981258;28;20842;-68
2020/12/30 11:48:58;;;;;;;5.63;3.20;;;5.20;99.70;;;;;;5000248;28;20437;-67
2020/12/30 11:51:24;;;;;;;7.10;3.37;;;5.20;99.70;;;;;;4988018;28;20532;-69
2020/12/30 11:53:51;;;;;;;4.97;3.00;;;5.10;99.70;;;;;;5005804;28;20458;-69
2020/12/30 11:56:22;;;;;;;5.57;2.70;;;5.20;99.70;;;;;;5002781;28;20446;-66
2020/12/30 11:58:48;;;;;;;6.30;3.53;;;5.10;99.70;;;;;;4993087;28;20469;-69
2020/12/30 12:01:14;;;;;;;5.73;3.43;;;5.20;99.70;;;;;;4991065;28;20568;-69
2020/12/30 12:03:40;;;;;;;4.30;2.87;;;5.10;99.70;;;;;;4986667;28;20513;-69
2020/12/30 12:06:07;;;;;;;7.07;3.10;;;5.20;99.70;;;;;;4979648;28;20807;-68
2020/12/30 12:08:33;;;;;;;6.83;3.30;;;5.20;99.70;;;;;;5010743;28;20449;-69
2020/12/30 12:11:00;;;;;;;5.13;2.70;;;5.20;99.70;;;;;;4987863;28;20458;-68
2020/12/30 12:13:27;;;;;;;5.63;2.90;;;5.30;99.70;;;;;;4990369;28;21022;-69
2020/12/30 12:15:53;;;;;;;4.27;2.60;;;5.50;99.70;;;;;;4981775;28;20447;-68
2020/12/30 12:18:19;;;;;;;5.90;2.80;;;5.40;99.70;;;;;;4987909;28;20454;-68
2020/12/30 12:20:45;;;;;;;3.90;2.50;;;5.40;99.70;;;;;;4976135;28;20483;-68
2020/12/30 12:23:11;;;;;;;6.40;3.00;;;5.40;99.70;;;;;;4971697;28;20525;-69
2020/12/30 12:25:39;;;;;;;4.70;2.60;;;5.40;99.70;;;;;;4971916;28;20447;-69
2020/12/30 12:28:06;;;;;;;3.30;2.17;;;5.30;99.70;;;;;;4971772;28;20479;-69
2020/12/30 12:30:32;;;;;;;4.20;2.60;;;5.30;99.70;;;;;;4971641;28;20451;-68
2020/12/30 12:32:58;;;;;;;4.90;2.50;;;5.10;99.70;;;;;;4971798;28;20467;-69
2020/12/30 12:35:24;;;;;;;4.03;2.30;;;5.10;99.70;;;;;;4971525;28;20877;-69
2020/12/30 12:38:05;;;;;;;4.67;2.50;;;5.00;99.70;;;;;;4971481;28;20460;-69
2020/12/30 12:40:31;;;;;;;3.60;2.70;;;5.10;99.70;;;;;;4971454;28;20514;-69
2020/12/30 12:42:57;;;;;;;6.50;3.30;;;5.10;99.70;;;;;;4970856;28;20596;-69
2020/12/30 12:45:24;;;;;;;5.80;2.97;;;5.10;99.70;;;;;;4971280;28;20952;-69
2020/12/30 12:47:51;;;;;;;5.87;3.00;;;5.10;99.70;;;;;;4971271;28;20448;-69
2020/12/30 12:50:17;;;;;;;4.53;3.00;;;5.10;99.70;;;;;;4971274;28;20451;-69
2020/12/30 12:52:43;;;;;;;5.60;3.20;;;5.10;99.70;;;;;;4970174;28;20454;-69
2020/12/30 12:55:09;;;;;;;5.93;3.00;;;5.10;99.70;;;;;;4986590;28;21020;-69
2020/12/30 12:57:35;;;;;;;5.30;3.10;;;5.20;99.70;;;;;;4986318;28;20477;-69